Terminal Aerodrome Forecast
Issued by NWS Shreveport, LA

Home | Current Version | Previous Version | Text Only | Print | Product List | Glossary On
Versions: 1 2 3 4 5 6 7 8 9 10 11 12 13 14 15 16 17 18
000
FTUS44 KSHV 011132
TAFLFK
TAF
KLFK 011132Z 0112/0212 05004KT P6SM SCT040 SCT070
      TEMPO 0112/0116 BKN015
     FM011600 07006KT P6SM BKN025
     FM011800 VRB05KT P6SM VCTS BKN030CB
     FM020000 VRB04KT 5SM -TSRA BR OVC025CB
     FM020600 VRB04KT 3SM TSRA BR OVC015CB=

USA.gov is the U.S. government's official web portal to all federal, state and local government web resources and services.